createdAt,value
2022-09-26T00:01:17.002Z,11.39
2022-09-26T00:03:45.948Z,11.36
2022-09-26T00:06:13.323Z,11.34
2022-09-26T00:08:40.228Z,11.31
2022-09-26T00:11:09.335Z,11.30
2022-09-26T00:13:38.139Z,11.27
2022-09-26T00:16:05.634Z,11.27
2022-09-26T00:18:32.683Z,11.25
2022-09-26T00:21:04.618Z,11.22
2022-09-26T00:23:31.285Z,11.21
2022-09-26T00:25:58.551Z,11.19
2022-09-26T00:28:25.522Z,11.16
2022-09-26T00:30:52.207Z,11.19
2022-09-26T00:33:18.721Z,11.22
2022-09-26T00:35:52.891Z,11.21
2022-09-26T00:38:20.057Z,11.14
2022-09-26T00:40:47.973Z,11.20
2022-09-26T00:43:42.371Z,11.20
2022-09-26T00:46:27.728Z,11.20
2022-09-26T00:49:04.937Z,11.17
2022-09-26T00:51:33.861Z,11.16
2022-09-26T00:54:00.668Z,11.13
2022-09-26T00:56:31.897Z,11.13
2022-09-26T00:59:16.944Z,11.12
2022-09-26T01:01:43.435Z,11.10
2022-09-26T01:04:12.554Z,11.09
2022-09-26T01:06:39.510Z,11.09
2022-09-26T01:09:09.816Z,11.07
2022-09-26T01:11:37.614Z,11.09
2022-09-26T01:14:06.371Z,11.10
2022-09-26T01:16:34.151Z,11.10
2022-09-26T01:19:04.225Z,11.10
2022-09-26T01:21:57.161Z,11.08
2022-09-26T01:24:48.149Z,11.07
2022-09-26T01:27:45.382Z,11.06
2022-09-26T01:30:21.477Z,11.02
2022-09-26T01:33:13.034Z,11.04
2022-09-26T01:36:02.984Z,11.04
2022-09-26T01:38:52.532Z,10.95
2022-09-26T01:41:34.000Z,10.90
2022-09-26T01:44:16.325Z,10.86
2022-09-26T01:46:52.139Z,10.86
2022-09-26T01:49:34.103Z,10.83
2022-09-26T01:52:10.449Z,10.80
2022-09-26T01:54:42.869Z,10.78
2022-09-26T01:57:15.903Z,10.78
2022-09-26T01:59:49.896Z,10.79
2022-09-26T02:02:21.436Z,10.79
2022-09-26T02:04:55.154Z,10.79
2022-09-26T02:07:31.665Z,10.74
2022-09-26T02:10:06.037Z,10.71
2022-09-26T02:12:39.468Z,10.70
2022-09-26T02:15:12.909Z,10.72
2022-09-26T02:17:43.859Z,10.68
2022-09-26T02:20:16.254Z,10.66
2022-09-26T02:22:44.380Z,10.63
2022-09-26T02:25:14.858Z,10.57
2022-09-26T02:27:41.531Z,10.57
2022-09-26T02:30:10.182Z,10.56
2022-09-26T02:32:37.219Z,10.53
2022-09-26T02:35:37.653Z,10.53
2022-09-26T02:38:05.555Z,10.52
2022-09-26T02:40:51.309Z,10.53
2022-09-26T02:43:54.065Z,10.54
2022-09-26T02:46:28.472Z,10.52
2022-09-26T02:49:33.532Z,10.52
2022-09-26T02:52:16.028Z,10.50
2022-09-26T02:54:58.583Z,10.48
2022-09-26T02:57:47.117Z,10.50
2022-09-26T03:00:20.969Z,10.48
2022-09-26T03:02:55.238Z,10.47
2022-09-26T03:05:26.223Z,10.48
2022-09-26T03:08:02.474Z,10.51
2022-09-26T03:10:31.772Z,10.52
2022-09-26T03:13:04.242Z,10.53
2022-09-26T03:15:33.067Z,10.57
2022-09-26T03:18:01.799Z,10.54
2022-09-26T03:20:28.917Z,10.58
2022-09-26T03:22:55.912Z,10.57
2022-09-26T03:25:25.818Z,10.63
2022-09-26T03:28:02.237Z,10.64
2022-09-26T03:30:32.194Z,10.69
2022-09-26T03:33:17.348Z,10.68
2022-09-26T03:35:43.769Z,10.66
2022-09-26T03:38:14.241Z,10.59
2022-09-26T03:40:46.525Z,10.57
2022-09-26T03:43:47.848Z,10.57
2022-09-26T03:46:15.810Z,10.52
2022-09-26T03:48:43.116Z,10.48
2022-09-26T03:51:13.115Z,10.48
2022-09-26T03:53:42.376Z,10.49
2022-09-26T03:56:14.889Z,10.43
2022-09-26T03:58:42.427Z,10.46
2022-09-26T04:01:11.936Z,10.40
2022-09-26T04:03:42.370Z,10.38
2022-09-26T04:06:11.475Z,10.33
2022-09-26T04:08:41.668Z,10.31
2022-09-26T04:11:12.342Z,10.25
2022-09-26T04:13:51.339Z,10.23
2022-09-26T04:16:22.594Z,10.21
2022-09-26T04:18:59.144Z,10.21
2022-09-26T04:21:27.151Z,10.21
2022-09-26T04:23:54.536Z,10.20
2022-09-26T04:26:24.217Z,10.19
2022-09-26T04:28:54.749Z,10.21
2022-09-26T04:31:24.217Z,10.24
2022-09-26T04:33:57.066Z,10.26
2022-09-26T04:36:23.767Z,10.30
2022-09-26T04:38:50.172Z,10.30
2022-09-26T04:41:20.017Z,10.30
2022-09-26T04:43:48.610Z,10.30
2022-09-26T04:46:24.557Z,10.29
2022-09-26T04:48:56.332Z,10.27
2022-09-26T04:51:25.907Z,10.29
2022-09-26T04:53:52.674Z,10.28
2022-09-26T04:56:26.239Z,10.24
2022-09-26T04:58:56.109Z,10.28
2022-09-26T05:01:24.569Z,10.26
2022-09-26T05:04:08.066Z,10.19
2022-09-26T05:06:34.435Z,10.17
2022-09-26T05:09:04.120Z,10.18
2022-09-26T05:11:40.392Z,10.18
2022-09-26T05:14:10.657Z,10.17
2022-09-26T05:16:38.865Z,10.18
2022-09-26T05:19:06.341Z,10.17
2022-09-26T05:21:36.065Z,10.17
2022-09-26T05:24:21.058Z,10.18
2022-09-26T05:26:50.715Z,10.17
2022-09-26T05:29:20.351Z,10.15
2022-09-26T05:31:54.553Z,10.15
2022-09-26T05:34:24.958Z,10.16
2022-09-26T05:36:53.161Z,10.13
2022-09-26T05:39:42.301Z,10.19
2022-09-26T05:42:09.972Z,10.22
2022-09-26T05:44:37.654Z,10.27
2022-09-26T05:47:04.506Z,10.28
2022-09-26T05:49:32.880Z,10.30
2022-09-26T05:51:59.596Z,10.32
2022-09-26T05:54:26.410Z,10.36
2022-09-26T05:56:54.031Z,10.38
2022-09-26T05:59:38.675Z,10.40
2022-09-26T06:02:25.364Z,10.41
2022-09-26T06:05:10.428Z,10.43
2022-09-26T06:07:36.774Z,10.45
2022-09-26T06:10:07.435Z,10.44
2022-09-26T06:12:40.830Z,10.45
2022-09-26T06:15:09.425Z,10.47
2022-09-26T06:17:36.342Z,10.49
2022-09-26T06:20:04.391Z,10.52
2022-09-26T06:22:39.228Z,10.54
2022-09-26T06:25:06.279Z,10.55
2022-09-26T06:27:38.717Z,10.55
2022-09-26T06:30:12.911Z,10.55
2022-09-26T06:32:40.253Z,10.55
2022-09-26T06:35:20.652Z,10.53
2022-09-26T06:38:01.256Z,10.51
2022-09-26T06:40:29.087Z,10.54
2022-09-26T06:42:55.921Z,10.57
2022-09-26T06:45:27.788Z,10.66
2022-09-26T06:48:08.395Z,10.72
2022-09-26T06:50:58.475Z,10.75
2022-09-26T06:53:24.925Z,10.79
2022-09-26T06:55:51.359Z,10.86
2022-09-26T06:58:17.853Z,10.97
2022-09-26T07:00:53.609Z,11.04
2022-09-26T07:03:42.920Z,11.09
2022-09-26T07:06:30.961Z,11.17
2022-09-26T07:09:02.991Z,11.22
2022-09-26T07:12:13.973Z,11.32
2022-09-26T07:14:42.017Z,11.38
2022-09-26T07:17:21.476Z,11.40
2022-09-26T07:20:10.263Z,11.43
2022-09-26T07:22:55.675Z,11.48
2022-09-26T07:25:22.888Z,11.49
2022-09-26T07:27:51.536Z,11.53
2022-09-26T07:30:21.316Z,11.54
2022-09-26T07:33:03.473Z,11.58
2022-09-26T07:35:36.482Z,11.51
2022-09-26T07:38:05.051Z,11.49
2022-09-26T07:40:32.314Z,11.45
2022-09-26T07:43:19.734Z,11.42
2022-09-26T07:46:09.241Z,11.39
2022-09-26T07:48:54.903Z,11.40
2022-09-26T07:51:40.088Z,11.44
2022-09-26T07:54:10.674Z,11.48
2022-09-26T07:56:55.734Z,11.53
2022-09-26T07:59:36.632Z,11.53
2022-09-26T08:02:25.760Z,11.53
2022-09-26T08:04:58.876Z,11.55
2022-09-26T08:07:27.766Z,11.62
2022-09-26T08:10:02.910Z,11.66
2022-09-26T08:12:48.373Z,11.67
2022-09-26T08:15:30.447Z,11.69
2022-09-26T08:18:05.266Z,11.69
2022-09-26T08:20:32.465Z,11.70
2022-09-26T08:23:00.137Z,11.69
2022-09-26T08:25:26.742Z,11.74
2022-09-26T08:28:01.165Z,11.82
2022-09-26T08:30:31.185Z,11.87
2022-09-26T08:33:01.962Z,11.88
2022-09-26T08:35:35.583Z,11.92
2022-09-26T08:38:15.461Z,11.97
2022-09-26T08:40:51.429Z,12.04
2022-09-26T08:43:49.207Z,12.09
2022-09-26T08:46:59.202Z,12.17
2022-09-26T08:49:55.767Z,12.37
2022-09-26T08:52:41.237Z,12.50
2022-09-26T08:55:15.702Z,12.60
2022-09-26T08:57:45.050Z,12.73
2022-09-26T09:00:19.315Z,12.80
2022-09-26T09:03:03.055Z,12.87
2022-09-26T09:05:33.849Z,12.93
2022-09-26T09:08:07.820Z,12.94
2022-09-26T09:10:47.197Z,13.02
2022-09-26T09:13:24.479Z,13.18
2022-09-26T09:16:20.579Z,13.31
2022-09-26T09:19:48.609Z,13.67
2022-09-26T09:23:13.619Z,13.89
2022-09-26T09:25:55.314Z,13.87
2022-09-26T09:28:53.140Z,13.75
2022-09-26T09:31:21.463Z,13.59
2022-09-26T09:34:02.008Z,13.51
2022-09-26T09:36:54.115Z,13.40
2022-09-26T09:39:35.168Z,13.43
2022-09-26T09:42:19.997Z,13.48
2022-09-26T09:44:57.598Z,13.58
2022-09-26T09:47:27.547Z,13.85
2022-09-26T09:49:56.689Z,13.99
2022-09-26T09:52:52.964Z,14.09
2022-09-26T09:55:42.444Z,14.18
2022-09-26T09:58:43.690Z,14.35
2022-09-26T10:01:18.859Z,14.46
2022-09-26T10:04:01.228Z,14.32
2022-09-26T10:06:45.393Z,14.26
2022-09-26T10:09:38.845Z,14.56
2022-09-26T10:12:28.737Z,14.55
2022-09-26T10:15:26.215Z,14.38
2022-09-26T10:18:24.708Z,14.20
2022-09-26T10:21:16.307Z,14.09
2022-09-26T10:23:46.756Z,14.04
2022-09-26T10:26:34.817Z,13.99
2022-09-26T10:29:25.024Z,14.06
2022-09-26T10:31:57.217Z,14.13
2022-09-26T10:34:27.865Z,14.12
2022-09-26T10:36:55.901Z,14.30
2022-09-26T10:39:49.232Z,14.33
2022-09-26T10:42:19.999Z,14.32
2022-09-26T10:44:50.420Z,14.35
2022-09-26T10:47:21.948Z,14.56
2022-09-26T10:50:29.359Z,15.25
2022-09-26T10:53:13.996Z,15.84
2022-09-26T10:55:46.095Z,16.31
2022-09-26T10:58:24.011Z,16.65
2022-09-26T11:00:54.230Z,16.53
2022-09-26T11:03:38.371Z,16.62
2022-09-26T11:06:35.501Z,16.28
2022-09-26T11:09:27.323Z,15.84
2022-09-26T11:12:29.988Z,15.66
2022-09-26T11:15:13.689Z,16.01
2022-09-26T11:17:47.219Z,16.38
2022-09-26T11:20:22.117Z,16.83
2022-09-26T11:22:58.306Z,17.08
2022-09-26T11:25:29.192Z,16.85
2022-09-26T11:28:07.004Z,16.36
2022-09-26T11:30:54.009Z,15.94
2022-09-26T11:33:24.618Z,15.67
2022-09-26T11:36:27.093Z,15.71
2022-09-26T11:38:57.783Z,15.89
2022-09-26T11:41:37.051Z,16.03
2022-09-26T11:44:42.051Z,16.19
2022-09-26T11:47:54.188Z,16.46
2022-09-26T11:50:56.164Z,16.18
2022-09-26T11:53:45.775Z,16.36
2022-09-26T11:56:33.945Z,16.87
2022-09-26T11:59:20.520Z,16.81
2022-09-26T12:01:55.731Z,16.63
2022-09-26T12:04:45.615Z,16.51
2022-09-26T12:07:22.288Z,16.41
2022-09-26T12:10:25.188Z,16.38
2022-09-26T12:13:17.784Z,16.24
2022-09-26T12:16:02.775Z,16.39
2022-09-26T12:18:40.114Z,16.94
2022-09-26T12:21:31.643Z,17.52
2022-09-26T12:24:00.781Z,17.86
2022-09-26T12:26:39.702Z,18.17
2022-09-26T12:29:39.812Z,18.51
2022-09-26T12:32:41.406Z,18.50
2022-09-26T12:35:32.197Z,18.80
2022-09-26T12:38:15.657Z,18.95
2022-09-26T12:41:01.986Z,18.98
2022-09-26T12:43:50.982Z,18.57
2022-09-26T12:46:41.482Z,18.14
2022-09-26T12:49:13.915Z,17.76
2022-09-26T12:51:42.821Z,17.57
2022-09-26T12:54:15.463Z,17.30
2022-09-26T12:56:51.704Z,16.97
2022-09-26T12:59:34.307Z,16.74
2022-09-26T13:02:41.969Z,16.57
2022-09-26T13:05:27.888Z,16.46
2022-09-26T13:08:18.364Z,16.35
2022-09-26T13:11:07.818Z,16.25
2022-09-26T13:13:49.181Z,16.10
2022-09-26T13:16:25.276Z,16.11
2022-09-26T13:18:56.455Z,16.17
2022-09-26T13:21:38.419Z,16.15
2022-09-26T13:24:13.884Z,16.51
2022-09-26T13:26:46.827Z,16.75
2022-09-26T13:29:27.001Z,17.30
2022-09-26T13:32:06.362Z,17.59
2022-09-26T13:34:45.249Z,18.11
2022-09-26T13:37:32.337Z,18.38
2022-09-26T13:40:09.656Z,18.34
2022-09-26T13:42:47.969Z,17.81
2022-09-26T13:45:36.168Z,17.25
2022-09-26T13:48:16.644Z,16.93
2022-09-26T13:50:55.876Z,16.72
2022-09-26T13:53:38.093Z,16.47
2022-09-26T13:56:40.336Z,16.24
2022-09-26T13:59:12.664Z,16.01
2022-09-26T14:01:59.735Z,15.85
2022-09-26T14:04:34.497Z,15.68
2022-09-26T14:07:28.999Z,15.61
2022-09-26T14:10:03.625Z,15.58
2022-09-26T14:12:52.557Z,15.64
2022-09-26T14:15:28.267Z,16.19
2022-09-26T14:18:07.809Z,16.78
2022-09-26T14:20:50.685Z,16.97
2022-09-26T14:23:39.026Z,16.67
2022-09-26T14:26:28.174Z,16.43
2022-09-26T14:28:56.481Z,16.19
2022-09-26T14:31:26.154Z,15.99
2022-09-26T14:34:15.433Z,15.75
2022-09-26T14:36:43.847Z,15.61
2022-09-26T14:39:34.461Z,15.54
2022-09-26T14:42:08.986Z,15.75
2022-09-26T14:44:37.391Z,15.76
2022-09-26T14:47:11.260Z,16.24
2022-09-26T14:49:37.713Z,16.45
2022-09-26T14:52:08.941Z,16.22
2022-09-26T14:54:40.245Z,15.91
2022-09-26T14:57:20.877Z,15.70
2022-09-26T14:59:47.963Z,15.47
2022-09-26T15:02:14.401Z,15.40
2022-09-26T15:04:43.373Z,15.50
2022-09-26T15:07:24.908Z,15.74
2022-09-26T15:09:59.697Z,16.33
2022-09-26T15:12:28.561Z,16.69
2022-09-26T15:15:15.318Z,16.73
2022-09-26T15:17:48.612Z,16.32
2022-09-26T15:20:18.595Z,15.85
2022-09-26T15:22:47.000Z,15.45
2022-09-26T15:25:22.801Z,15.18
2022-09-26T15:27:56.327Z,14.90
2022-09-26T15:30:27.181Z,14.69
2022-09-26T15:32:57.909Z,14.51
2022-09-26T15:35:26.690Z,14.37
2022-09-26T15:38:00.974Z,14.33
2022-09-26T15:40:30.146Z,14.45
2022-09-26T15:43:15.894Z,14.31
2022-09-26T15:45:59.492Z,14.14
2022-09-26T15:48:32.464Z,14.03
2022-09-26T15:51:14.822Z,13.98
2022-09-26T15:53:49.224Z,13.96
2022-09-26T15:56:23.857Z,13.92
2022-09-26T15:59:05.919Z,13.91
2022-09-26T16:01:40.411Z,13.85
2022-09-26T16:04:21.800Z,13.80
2022-09-26T16:06:52.840Z,13.77
2022-09-26T16:09:34.698Z,13.71
2022-09-26T16:12:23.332Z,13.63
2022-09-26T16:14:58.658Z,13.53
2022-09-26T16:17:40.272Z,13.49
2022-09-26T16:20:09.647Z,13.42
2022-09-26T16:22:46.385Z,13.36
2022-09-26T16:25:15.467Z,13.24
2022-09-26T16:27:42.416Z,13.12
2022-09-26T16:30:20.984Z,13.01
2022-09-26T16:32:47.543Z,12.91
2022-09-26T16:35:23.851Z,12.90
2022-09-26T16:37:59.447Z,12.83
2022-09-26T16:40:30.605Z,12.80
2022-09-26T16:43:18.860Z,12.75
2022-09-26T16:45:46.929Z,12.72
2022-09-26T16:48:36.402Z,12.67
2022-09-26T16:51:18.373Z,12.61
2022-09-26T16:53:46.558Z,12.60
2022-09-26T16:56:15.728Z,12.57
2022-09-26T16:58:49.013Z,12.53
2022-09-26T17:01:34.650Z,12.43
2022-09-26T17:04:01.298Z,12.31
2022-09-26T17:06:27.760Z,12.24
2022-09-26T17:08:56.450Z,12.18
2022-09-26T17:11:23.721Z,12.15
2022-09-26T17:13:50.261Z,12.12
2022-09-26T17:16:16.752Z,12.10
2022-09-26T17:18:44.703Z,12.11
2022-09-26T17:21:13.964Z,12.07
2022-09-26T17:23:41.774Z,12.08
2022-09-26T17:26:23.604Z,12.08
2022-09-26T17:28:53.264Z,12.07
2022-09-26T17:31:20.344Z,12.10
2022-09-26T17:33:52.506Z,12.09
2022-09-26T17:36:24.826Z,12.05
2022-09-26T17:38:51.643Z,12.00
2022-09-26T17:41:18.076Z,11.99
2022-09-26T17:43:45.092Z,11.98
2022-09-26T17:46:15.403Z,11.95
2022-09-26T17:48:43.162Z,11.91
2022-09-26T17:51:13.773Z,11.88
2022-09-26T17:53:50.200Z,11.82
2022-09-26T17:56:18.804Z,11.78
2022-09-26T17:58:47.149Z,11.73
2022-09-26T18:01:33.377Z,11.69
2022-09-26T18:04:06.141Z,11.68
2022-09-26T18:06:33.114Z,11.66
2022-09-26T18:09:05.528Z,11.64
2022-09-26T18:11:34.282Z,11.58
2022-09-26T18:14:03.278Z,11.52
2022-09-26T18:16:29.621Z,11.53
2022-09-26T18:18:56.080Z,11.54
2022-09-26T18:21:24.125Z,11.56
2022-09-26T18:23:55.500Z,11.57
2022-09-26T18:26:21.954Z,11.60
2022-09-26T18:28:48.365Z,11.57
2022-09-26T18:31:14.986Z,11.56
2022-09-26T18:33:41.341Z,11.55
2022-09-26T18:36:12.064Z,11.55
2022-09-26T18:38:38.413Z,11.56
2022-09-26T18:41:06.925Z,11.53
2022-09-26T18:43:40.495Z,11.53
2022-09-26T18:46:15.736Z,11.52
2022-09-26T18:48:42.840Z,11.50
2022-09-26T18:51:12.793Z,11.52
2022-09-26T18:53:40.321Z,11.49
2022-09-26T18:56:26.765Z,11.51
2022-09-26T18:58:53.595Z,11.51
2022-09-26T19:01:44.151Z,11.51
2022-09-26T19:04:17.625Z,11.49
2022-09-26T19:06:47.062Z,11.49
2022-09-26T19:09:15.093Z,11.46
2022-09-26T19:11:42.022Z,11.42
2022-09-26T19:14:25.762Z,11.41
2022-09-26T19:16:52.938Z,11.39
2022-09-26T19:19:20.095Z,11.38
2022-09-26T19:21:56.820Z,11.35
2022-09-26T19:24:23.208Z,11.31
2022-09-26T19:27:06.116Z,11.27
2022-09-26T19:29:44.927Z,11.23
2022-09-26T19:32:20.361Z,11.22
2022-09-26T19:34:51.610Z,11.21
2022-09-26T19:37:18.200Z,11.21
2022-09-26T19:39:44.690Z,11.21
2022-09-26T19:42:11.501Z,11.19
2022-09-26T19:44:37.876Z,11.21
2022-09-26T19:47:04.672Z,11.23
2022-09-26T19:49:32.785Z,11.23
2022-09-26T19:52:02.071Z,11.22
2022-09-26T19:54:28.496Z,11.24
2022-09-26T19:56:54.864Z,11.24
2022-09-26T19:59:25.325Z,11.25
2022-09-26T20:01:53.709Z,11.26
2022-09-26T20:04:20.483Z,11.27
2022-09-26T20:06:47.204Z,11.28
2022-09-26T20:09:18.954Z,11.30
2022-09-26T20:11:45.469Z,11.31
2022-09-26T20:14:24.408Z,11.29
2022-09-26T20:16:57.361Z,11.29
2022-09-26T20:19:34.464Z,11.29
2022-09-26T20:22:03.122Z,11.28
2022-09-26T20:24:35.150Z,11.24
2022-09-26T20:27:03.517Z,11.22
2022-09-26T20:29:29.986Z,11.19
2022-09-26T20:31:56.483Z,11.20
2022-09-26T20:34:22.831Z,11.19
2022-09-26T20:36:51.500Z,11.15
2022-09-26T20:39:23.181Z,11.20
2022-09-26T20:41:51.239Z,11.20
2022-09-26T20:44:27.241Z,11.22
2022-09-26T20:46:58.693Z,11.23
2022-09-26T20:49:34.503Z,11.26
2022-09-26T20:52:02.377Z,11.28
2022-09-26T20:54:31.031Z,11.31
2022-09-26T20:56:58.704Z,11.31
2022-09-26T20:59:26.070Z,11.31
2022-09-26T21:01:54.350Z,11.34
2022-09-26T21:04:29.489Z,11.38
2022-09-26T21:06:56.156Z,11.40
2022-09-26T21:09:22.560Z,11.40
2022-09-26T21:11:48.992Z,11.42
2022-09-26T21:14:16.604Z,11.44
2022-09-26T21:16:46.547Z,11.43
2022-09-26T21:19:21.026Z,11.40
2022-09-26T21:21:51.711Z,11.38
2022-09-26T21:24:41.201Z,11.37
2022-09-26T21:27:11.440Z,11.27
2022-09-26T21:29:38.025Z,11.38
2022-09-26T21:32:08.213Z,11.35
2022-09-26T21:34:36.658Z,11.35
2022-09-26T21:37:03.754Z,11.34
2022-09-26T21:39:30.578Z,11.32
2022-09-26T21:42:01.577Z,11.29
2022-09-26T21:44:37.495Z,11.30
2022-09-26T21:47:04.162Z,11.23
2022-09-26T21:49:30.907Z,11.22
2022-09-26T21:52:17.269Z,11.21
2022-09-26T21:54:45.054Z,11.19
2022-09-26T21:57:17.297Z,11.16
2022-09-26T21:59:44.228Z,11.07
2022-09-26T22:02:10.669Z,11.17
2022-09-26T22:04:37.070Z,11.15
2022-09-26T22:07:03.433Z,11.17
2022-09-26T22:09:30.276Z,11.15
2022-09-26T22:11:56.702Z,11.13
2022-09-26T22:14:23.058Z,11.12
2022-09-26T22:16:49.423Z,11.13
2022-09-26T22:19:16.515Z,11.14
2022-09-26T22:21:43.083Z,11.11
2022-09-26T22:24:10.307Z,11.11
2022-09-26T22:26:36.716Z,11.08
2022-09-26T22:29:03.209Z,11.08
2022-09-26T22:31:29.646Z,11.06
2022-09-26T22:33:57.362Z,11.06
2022-09-26T22:36:24.301Z,11.06
2022-09-26T22:38:50.697Z,11.09
2022-09-26T22:41:17.088Z,11.11
2022-09-26T22:43:43.426Z,11.13
2022-09-26T22:46:12.399Z,11.11
2022-09-26T22:48:45.794Z,11.13
2022-09-26T22:51:13.777Z,11.13
2022-09-26T22:53:41.618Z,11.13
2022-09-26T22:56:11.296Z,11.12
2022-09-26T22:58:40.562Z,11.12
2022-09-26T23:01:12.593Z,11.12
2022-09-26T23:03:40.065Z,11.10
2022-09-26T23:06:07.933Z,11.08
2022-09-26T23:08:34.981Z,11.04
2022-09-26T23:11:02.652Z,11.01
2022-09-26T23:13:31.465Z,11.02
2022-09-26T23:16:26.998Z,11.00
2022-09-26T23:18:54.211Z,10.99
2022-09-26T23:21:22.982Z,10.96
2022-09-26T23:23:52.525Z,10.98
2022-09-26T23:26:22.124Z,11.01
2022-09-26T23:28:50.063Z,11.01
2022-09-26T23:31:16.946Z,11.02
2022-09-26T23:33:43.649Z,11.04
2022-09-26T23:36:10.954Z,11.05
2022-09-26T23:38:39.156Z,11.06
2022-09-26T23:41:10.199Z,11.02
2022-09-26T23:43:37.514Z,11.00
2022-09-26T23:46:04.459Z,11.01
2022-09-26T23:48:30.957Z,11.00
2022-09-26T23:50:57.598Z,10.99
2022-09-26T23:53:24.062Z,10.98
2022-09-26T23:55:50.560Z,10.92
2022-09-26T23:58:17.053Z,10.93
